sensor_id;sensor_type;location;lat;lon;timestamp;P1;durP1;ratioP1;P2;durP2;ratioP2
19043;SDS011;9654;52.302;8.120;2024-03-08T00:02:22;57.47;;;25.63;;
19043;SDS011;9654;52.302;8.120;2024-03-08T00:04:51;54.20;;;24.33;;
19043;SDS011;9654;52.302;8.120;2024-03-08T00:07:18;54.80;;;23.97;;
19043;SDS011;9654;52.302;8.120;2024-03-08T00:09:45;52.00;;;23.60;;
19043;SDS011;9654;52.302;8.120;2024-03-08T00:12:12;62.17;;;25.70;;
19043;SDS011;9654;52.302;8.120;2024-03-08T00:14:39;54.90;;;23.10;;
19043;SDS011;9654;52.302;8.120;2024-03-08T00:17:06;48.30;;;22.57;;
19043;SDS011;9654;52.302;8.120;2024-03-08T00:19:34;47.67;;;22.73;;
19043;SDS011;9654;52.302;8.120;2024-03-08T00:22:03;50.50;;;22.83;;
19043;SDS011;9654;52.302;8.120;2024-03-08T00:24:30;55.87;;;24.23;;
19043;SDS011;9654;52.302;8.120;2024-03-08T00:26:57;48.57;;;23.70;;
19043;SDS011;9654;52.302;8.120;2024-03-08T00:29:24;47.80;;;23.57;;
19043;SDS011;9654;52.302;8.120;2024-03-08T00:31:51;53.53;;;23.77;;
19043;SDS011;9654;52.302;8.120;2024-03-08T00:34:18;50.53;;;25.63;;
19043;SDS011;9654;52.302;8.120;2024-03-08T00:36:44;60.60;;;25.83;;
19043;SDS011;9654;52.302;8.120;2024-03-08T00:39:14;55.90;;;26.23;;
19043;SDS011;9654;52.302;8.120;2024-03-08T00:41:41;52.67;;;25.57;;
19043;SDS011;9654;52.302;8.120;2024-03-08T00:44:09;54.60;;;25.33;;
19043;SDS011;9654;52.302;8.120;2024-03-08T00:46:36;56.23;;;24.90;;
19043;SDS011;9654;52.302;8.120;2024-03-08T00:49:03;55.70;;;25.90;;
19043;SDS011;9654;52.302;8.120;2024-03-08T00:51:31;49.90;;;24.23;;
19043;SDS011;9654;52.302;8.120;2024-03-08T00:53:58;50.33;;;24.80;;
19043;SDS011;9654;52.302;8.120;2024-03-08T00:56:27;49.03;;;24.47;;
19043;SDS011;9654;52.302;8.120;2024-03-08T00:58:53;49.60;;;23.60;;
19043;SDS011;9654;52.302;8.120;2024-03-08T01:01:20;51.27;;;24.27;;
19043;SDS011;9654;52.302;8.120;2024-03-08T01:03:49;57.90;;;25.37;;
19043;SDS011;9654;52.302;8.120;2024-03-08T01:06:17;50.87;;;23.40;;
19043;SDS011;9654;52.302;8.120;2024-03-08T01:08:44;59.30;;;27.60;;
19043;SDS011;9654;52.302;8.120;2024-03-08T01:11:12;55.70;;;26.13;;
19043;SDS011;9654;52.302;8.120;2024-03-08T01:13:41;57.33;;;25.23;;
19043;SDS011;9654;52.302;8.120;2024-03-08T01:16:08;52.90;;;26.60;;
19043;SDS011;9654;52.302;8.120;2024-03-08T01:18:35;51.93;;;24.93;;
19043;SDS011;9654;52.302;8.120;2024-03-08T01:21:02;57.53;;;26.80;;
19043;SDS011;9654;52.302;8.120;2024-03-08T01:23:29;53.87;;;26.50;;
19043;SDS011;9654;52.302;8.120;2024-03-08T01:25:56;67.07;;;30.33;;
19043;SDS011;9654;52.302;8.120;2024-03-08T01:28:23;61.90;;;26.93;;
19043;SDS011;9654;52.302;8.120;2024-03-08T01:30:52;69.43;;;30.93;;
19043;SDS011;9654;52.302;8.120;2024-03-08T01:33:21;66.53;;;28.27;;
19043;SDS011;9654;52.302;8.120;2024-03-08T01:35:49;87.73;;;35.60;;
19043;SDS011;9654;52.302;8.120;2024-03-08T01:38:16;70.00;;;31.70;;
19043;SDS011;9654;52.302;8.120;2024-03-08T01:40:43;72.87;;;31.43;;
19043;SDS011;9654;52.302;8.120;2024-03-08T01:43:17;66.07;;;28.80;;
19043;SDS011;9654;52.302;8.120;2024-03-08T01:45:45;65.17;;;27.80;;
19043;SDS011;9654;52.302;8.120;2024-03-08T01:48:14;59.43;;;27.30;;
19043;SDS011;9654;52.302;8.120;2024-03-08T01:50:42;55.53;;;25.47;;
19043;SDS011;9654;52.302;8.120;2024-03-08T01:53:10;66.90;;;27.37;;
19043;SDS011;9654;52.302;8.120;2024-03-08T01:55:38;56.47;;;26.13;;
19043;SDS011;9654;52.302;8.120;2024-03-08T01:58:05;57.60;;;26.33;;
19043;SDS011;9654;52.302;8.120;2024-03-08T02:00:32;58.67;;;27.47;;
19043;SDS011;9654;52.302;8.120;2024-03-08T02:03:00;65.17;;;28.07;;
19043;SDS011;9654;52.302;8.120;2024-03-08T02:05:30;65.63;;;28.20;;
19043;SDS011;9654;52.302;8.120;2024-03-08T02:07:58;55.73;;;26.20;;
19043;SDS011;9654;52.302;8.120;2024-03-08T02:10:25;65.13;;;26.90;;
19043;SDS011;9654;52.302;8.120;2024-03-08T02:12:52;66.77;;;28.50;;
19043;SDS011;9654;52.302;8.120;2024-03-08T02:15:19;56.87;;;27.13;;
19043;SDS011;9654;52.302;8.120;2024-03-08T02:17:46;53.87;;;25.10;;
19043;SDS011;9654;52.302;8.120;2024-03-08T02:20:14;63.97;;;26.40;;
19043;SDS011;9654;52.302;8.120;2024-03-08T02:22:42;63.53;;;27.53;;
19043;SDS011;9654;52.302;8.120;2024-03-08T02:25:09;58.07;;;26.40;;
19043;SDS011;9654;52.302;8.120;2024-03-08T02:27:37;57.30;;;26.33;;
19043;SDS011;9654;52.302;8.120;2024-03-08T02:30:06;60.83;;;26.67;;
19043;SDS011;9654;52.302;8.120;2024-03-08T02:32:36;57.33;;;26.47;;
19043;SDS011;9654;52.302;8.120;2024-03-08T02:35:03;52.77;;;25.10;;
19043;SDS011;9654;52.302;8.120;2024-03-08T02:37:31;57.87;;;27.90;;
19043;SDS011;9654;52.302;8.120;2024-03-08T02:39:59;54.60;;;26.10;;
19043;SDS011;9654;52.302;8.120;2024-03-08T02:42:26;62.70;;;27.53;;
19043;SDS011;9654;52.302;8.120;2024-03-08T02:44:53;55.33;;;26.27;;
19043;SDS011;9654;52.302;8.120;2024-03-08T02:47:20;53.40;;;26.37;;
19043;SDS011;9654;52.302;8.120;2024-03-08T02:49:47;57.70;;;26.30;;
19043;SDS011;9654;52.302;8.120;2024-03-08T02:52:15;54.03;;;25.80;;
19043;SDS011;9654;52.302;8.120;2024-03-08T02:54:42;56.53;;;26.27;;
19043;SDS011;9654;52.302;8.120;2024-03-08T02:57:10;56.63;;;26.70;;
19043;SDS011;9654;52.302;8.120;2024-03-08T02:59:37;52.80;;;25.33;;
19043;SDS011;9654;52.302;8.120;2024-03-08T03:02:05;63.07;;;26.20;;
19043;SDS011;9654;52.302;8.120;2024-03-08T03:04:32;55.00;;;27.23;;
19043;SDS011;9654;52.302;8.120;2024-03-08T03:06:59;50.80;;;24.67;;
19043;SDS011;9654;52.302;8.120;2024-03-08T03:09:26;53.30;;;25.00;;
19043;SDS011;9654;52.302;8.120;2024-03-08T03:11:53;62.00;;;28.10;;
19043;SDS011;9654;52.302;8.120;2024-03-08T03:14:22;66.53;;;28.97;;
19043;SDS011;9654;52.302;8.120;2024-03-08T03:16:49;61.90;;;29.90;;
19043;SDS011;9654;52.302;8.120;2024-03-08T03:19:15;71.83;;;31.57;;
19043;SDS011;9654;52.302;8.120;2024-03-08T03:21:42;75.00;;;35.03;;
19043;SDS011;9654;52.302;8.120;2024-03-08T03:24:09;71.43;;;32.03;;
19043;SDS011;9654;52.302;8.120;2024-03-08T03:26:37;70.47;;;31.50;;
19043;SDS011;9654;52.302;8.120;2024-03-08T03:29:05;76.33;;;34.00;;
19043;SDS011;9654;52.302;8.120;2024-03-08T03:31:34;79.63;;;34.80;;
19043;SDS011;9654;52.302;8.120;2024-03-08T03:34:02;67.97;;;29.40;;
19043;SDS011;9654;52.302;8.120;2024-03-08T03:36:29;64.77;;;29.60;;
19043;SDS011;9654;52.302;8.120;2024-03-08T03:38:56;67.40;;;28.90;;
19043;SDS011;9654;52.302;8.120;2024-03-08T03:41:32;65.93;;;30.17;;
19043;SDS011;9654;52.302;8.120;2024-03-08T03:43:59;56.60;;;26.87;;
19043;SDS011;9654;52.302;8.120;2024-03-08T03:46:26;58.30;;;27.17;;
19043;SDS011;9654;52.302;8.120;2024-03-08T03:48:55;58.53;;;28.17;;
19043;SDS011;9654;52.302;8.120;2024-03-08T03:51:21;69.63;;;32.53;;
19043;SDS011;9654;52.302;8.120;2024-03-08T03:53:49;81.23;;;36.33;;
19043;SDS011;9654;52.302;8.120;2024-03-08T03:56:16;70.17;;;29.83;;
19043;SDS011;9654;52.302;8.120;2024-03-08T03:58:43;65.90;;;29.93;;
19043;SDS011;9654;52.302;8.120;2024-03-08T04:01:10;91.90;;;42.67;;
19043;SDS011;9654;52.302;8.120;2024-03-08T04:03:37;133.20;;;55.30;;
19043;SDS011;9654;52.302;8.120;2024-03-08T04:06:09;97.53;;;42.50;;
19043;SDS011;9654;52.302;8.120;2024-03-08T04:08:36;75.47;;;33.67;;
19043;SDS011;9654;52.302;8.120;2024-03-08T04:11:03;83.07;;;38.23;;
19043;SDS011;9654;52.302;8.120;2024-03-08T04:13:30;67.87;;;32.63;;
19043;SDS011;9654;52.302;8.120;2024-03-08T04:15:57;59.60;;;26.43;;
19043;SDS011;9654;52.302;8.120;2024-03-08T04:18:25;66.47;;;31.07;;
19043;SDS011;9654;52.302;8.120;2024-03-08T04:20:53;67.63;;;29.80;;
19043;SDS011;9654;52.302;8.120;2024-03-08T04:23:21;72.90;;;31.60;;
19043;SDS011;9654;52.302;8.120;2024-03-08T04:25:48;90.60;;;37.07;;
19043;SDS011;9654;52.302;8.120;2024-03-08T04:28:15;84.30;;;34.47;;
19043;SDS011;9654;52.302;8.120;2024-03-08T04:30:42;65.87;;;30.80;;
19043;SDS011;9654;52.302;8.120;2024-03-08T04:33:11;60.03;;;28.27;;
19043;SDS011;9654;52.302;8.120;2024-03-08T04:35:39;61.57;;;26.90;;
19043;SDS011;9654;52.302;8.120;2024-03-08T04:38:06;59.43;;;27.77;;
19043;SDS011;9654;52.302;8.120;2024-03-08T04:40:35;60.97;;;29.17;;
19043;SDS011;9654;52.302;8.120;2024-03-08T04:43:02;57.63;;;26.57;;
19043;SDS011;9654;52.302;8.120;2024-03-08T04:45:29;64.80;;;28.67;;
19043;SDS011;9654;52.302;8.120;2024-03-08T04:47:56;63.70;;;29.73;;
19043;SDS011;9654;52.302;8.120;2024-03-08T04:50:23;68.67;;;28.73;;
19043;SDS011;9654;52.302;8.120;2024-03-08T04:52:50;68.23;;;27.57;;
19043;SDS011;9654;52.302;8.120;2024-03-08T04:55:16;61.00;;;27.47;;
19043;SDS011;9654;52.302;8.120;2024-03-08T04:57:47;64.60;;;28.77;;
19043;SDS011;9654;52.302;8.120;2024-03-08T05:00:14;57.10;;;28.23;;
19043;SDS011;9654;52.302;8.120;2024-03-08T05:02:42;64.17;;;27.50;;
19043;SDS011;9654;52.302;8.120;2024-03-08T05:05:09;68.57;;;28.27;;
19043;SDS011;9654;52.302;8.120;2024-03-08T05:07:37;55.57;;;25.53;;
19043;SDS011;9654;52.302;8.120;2024-03-08T05:10:06;62.17;;;27.50;;
19043;SDS011;9654;52.302;8.120;2024-03-08T05:12:34;56.10;;;24.57;;
19043;SDS011;9654;52.302;8.120;2024-03-08T05:15:02;57.43;;;26.50;;
19043;SDS011;9654;52.302;8.120;2024-03-08T05:17:30;56.90;;;25.70;;
19043;SDS011;9654;52.302;8.120;2024-03-08T05:19:58;62.07;;;26.60;;
19043;SDS011;9654;52.302;8.120;2024-03-08T05:22:25;65.83;;;27.10;;
19043;SDS011;9654;52.302;8.120;2024-03-08T05:24:52;60.87;;;26.13;;
19043;SDS011;9654;52.302;8.120;2024-03-08T05:27:19;63.10;;;26.63;;
19043;SDS011;9654;52.302;8.120;2024-03-08T05:29:46;59.67;;;26.57;;
19043;SDS011;9654;52.302;8.120;2024-03-08T05:32:14;60.77;;;26.63;;
19043;SDS011;9654;52.302;8.120;2024-03-08T05:34:40;66.83;;;27.13;;
19043;SDS011;9654;52.302;8.120;2024-03-08T05:37:08;62.53;;;27.87;;
19043;SDS011;9654;52.302;8.120;2024-03-08T05:39:34;56.77;;;26.90;;
19043;SDS011;9654;52.302;8.120;2024-03-08T05:42:01;61.97;;;26.17;;
19043;SDS011;9654;52.302;8.120;2024-03-08T05:44:28;59.90;;;27.13;;
19043;SDS011;9654;52.302;8.120;2024-03-08T05:46:56;56.47;;;25.10;;
19043;SDS011;9654;52.302;8.120;2024-03-08T05:49:24;60.87;;;27.17;;
19043;SDS011;9654;52.302;8.120;2024-03-08T05:51:51;60.73;;;25.77;;
19043;SDS011;9654;52.302;8.120;2024-03-08T05:54:19;60.00;;;27.27;;
19043;SDS011;9654;52.302;8.120;2024-03-08T05:56:47;64.37;;;26.90;;
19043;SDS011;9654;52.302;8.120;2024-03-08T05:59:18;61.50;;;27.03;;
19043;SDS011;9654;52.302;8.120;2024-03-08T06:01:45;59.40;;;26.50;;
19043;SDS011;9654;52.302;8.120;2024-03-08T06:04:12;60.37;;;26.37;;
19043;SDS011;9654;52.302;8.120;2024-03-08T06:06:40;61.77;;;26.60;;
19043;SDS011;9654;52.302;8.120;2024-03-08T06:09:07;56.30;;;25.17;;
19043;SDS011;9654;52.302;8.120;2024-03-08T06:11:36;66.67;;;28.87;;
19043;SDS011;9654;52.302;8.120;2024-03-08T06:14:03;60.90;;;27.13;;
19043;SDS011;9654;52.302;8.120;2024-03-08T06:16:31;59.17;;;26.70;;
19043;SDS011;9654;52.302;8.120;2024-03-08T06:19:01;64.93;;;27.37;;
19043;SDS011;9654;52.302;8.120;2024-03-08T06:21:28;63.97;;;28.23;;
19043;SDS011;9654;52.302;8.120;2024-03-08T06:23:56;59.97;;;27.40;;
19043;SDS011;9654;52.302;8.120;2024-03-08T06:26:23;63.97;;;27.63;;
19043;SDS011;9654;52.302;8.120;2024-03-08T06:28:53;61.20;;;26.50;;
19043;SDS011;9654;52.302;8.120;2024-03-08T06:31:20;59.77;;;26.53;;
19043;SDS011;9654;52.302;8.120;2024-03-08T06:33:47;71.10;;;26.90;;
19043;SDS011;9654;52.302;8.120;2024-03-08T06:36:15;58.07;;;26.03;;
19043;SDS011;9654;52.302;8.120;2024-03-08T06:38:43;59.90;;;26.93;;
19043;SDS011;9654;52.302;8.120;2024-03-08T06:41:12;57.93;;;25.77;;
19043;SDS011;9654;52.302;8.120;2024-03-08T06:43:41;65.40;;;27.57;;
19043;SDS011;9654;52.302;8.120;2024-03-08T06:46:08;62.30;;;28.47;;
19043;SDS011;9654;52.302;8.120;2024-03-08T06:48:35;63.23;;;28.07;;
19043;SDS011;9654;52.302;8.120;2024-03-08T06:51:03;60.40;;;26.83;;
19043;SDS011;9654;52.302;8.120;2024-03-08T06:53:30;62.00;;;27.77;;
19043;SDS011;9654;52.302;8.120;2024-03-08T06:55:57;61.77;;;26.63;;
19043;SDS011;9654;52.302;8.120;2024-03-08T06:58:26;52.97;;;25.80;;
19043;SDS011;9654;52.302;8.120;2024-03-08T07:00:53;57.10;;;25.97;;
19043;SDS011;9654;52.302;8.120;2024-03-08T07:03:23;53.50;;;25.17;;
19043;SDS011;9654;52.302;8.120;2024-03-08T07:05:51;59.43;;;25.73;;
19043;SDS011;9654;52.302;8.120;2024-03-08T07:08:19;55.33;;;24.23;;
19043;SDS011;9654;52.302;8.120;2024-03-08T07:10:47;57.97;;;25.50;;
19043;SDS011;9654;52.302;8.120;2024-03-08T07:13:14;54.43;;;25.73;;
19043;SDS011;9654;52.302;8.120;2024-03-08T07:15:43;59.87;;;25.20;;
19043;SDS011;9654;52.302;8.120;2024-03-08T07:18:11;58.50;;;25.77;;
19043;SDS011;9654;52.302;8.120;2024-03-08T07:20:39;55.80;;;25.83;;
19043;SDS011;9654;52.302;8.120;2024-03-08T07:23:07;54.10;;;24.63;;
19043;SDS011;9654;52.302;8.120;2024-03-08T07:25:35;60.53;;;26.17;;
19043;SDS011;9654;52.302;8.120;2024-03-08T07:28:04;57.13;;;26.40;;
19043;SDS011;9654;52.302;8.120;2024-03-08T07:30:32;61.87;;;25.50;;
19043;SDS011;9654;52.302;8.120;2024-03-08T07:33:20;59.43;;;25.53;;
19043;SDS011;9654;52.302;8.120;2024-03-08T07:35:48;56.80;;;26.03;;
19043;SDS011;9654;52.302;8.120;2024-03-08T07:38:15;52.73;;;24.40;;
19043;SDS011;9654;52.302;8.120;2024-03-08T07:40:42;56.23;;;26.87;;
19043;SDS011;9654;52.302;8.120;2024-03-08T07:43:10;58.13;;;25.77;;
19043;SDS011;9654;52.302;8.120;2024-03-08T07:45:37;53.27;;;25.97;;
19043;SDS011;9654;52.302;8.120;2024-03-08T07:48:04;52.97;;;25.80;;
19043;SDS011;9654;52.302;8.120;2024-03-08T07:50:36;57.40;;;24.77;;
19043;SDS011;9654;52.302;8.120;2024-03-08T07:53:04;50.10;;;24.23;;
19043;SDS011;9654;52.302;8.120;2024-03-08T07:55:31;54.50;;;25.80;;
19043;SDS011;9654;52.302;8.120;2024-03-08T07:57:59;57.63;;;24.77;;
19043;SDS011;9654;52.302;8.120;2024-03-08T08:00:26;58.10;;;24.97;;
19043;SDS011;9654;52.302;8.120;2024-03-08T08:02:53;56.47;;;26.07;;
19043;SDS011;9654;52.302;8.120;2024-03-08T08:05:21;48.10;;;22.93;;
19043;SDS011;9654;52.302;8.120;2024-03-08T08:07:49;49.03;;;24.03;;
19043;SDS011;9654;52.302;8.120;2024-03-08T08:10:18;51.10;;;24.47;;
19043;SDS011;9654;52.302;8.120;2024-03-08T08:12:46;52.43;;;24.60;;
19043;SDS011;9654;52.302;8.120;2024-03-08T08:15:13;50.67;;;25.17;;
19043;SDS011;9654;52.302;8.120;2024-03-08T08:17:41;55.67;;;26.03;;
19043;SDS011;9654;52.302;8.120;2024-03-08T08:20:08;55.33;;;25.97;;
19043;SDS011;9654;52.302;8.120;2024-03-08T08:22:36;51.27;;;23.33;;
19043;SDS011;9654;52.302;8.120;2024-03-08T08:28:34;52.80;;;24.37;;
19043;SDS011;9654;52.302;8.120;2024-03-08T08:31:01;49.57;;;23.60;;
19043;SDS011;9654;52.302;8.120;2024-03-08T08:33:29;48.60;;;24.47;;
19043;SDS011;9654;52.302;8.120;2024-03-08T08:35:56;49.67;;;24.23;;
19043;SDS011;9654;52.302;8.120;2024-03-08T08:38:23;49.37;;;24.63;;
19043;SDS011;9654;52.302;8.120;2024-03-08T08:40:50;46.10;;;23.93;;
19043;SDS011;9654;52.302;8.120;2024-03-08T08:43:17;46.07;;;23.00;;
19043;SDS011;9654;52.302;8.120;2024-03-08T08:45:47;50.57;;;24.83;;
19043;SDS011;9654;52.302;8.120;2024-03-08T08:48:16;50.10;;;23.53;;
19043;SDS011;9654;52.302;8.120;2024-03-08T08:50:42;53.70;;;25.40;;
19043;SDS011;9654;52.302;8.120;2024-03-08T08:53:10;48.30;;;24.20;;
19043;SDS011;9654;52.302;8.120;2024-03-08T08:55:37;42.70;;;22.10;;
19043;SDS011;9654;52.302;8.120;2024-03-08T08:58:06;47.37;;;23.30;;
19043;SDS011;9654;52.302;8.120;2024-03-08T09:00:33;50.37;;;24.07;;
19043;SDS011;9654;52.302;8.120;2024-03-08T09:03:01;46.47;;;23.43;;
19043;SDS011;9654;52.302;8.120;2024-03-08T09:05:29;43.80;;;21.83;;
19043;SDS011;9654;52.302;8.120;2024-03-08T09:07:56;52.67;;;24.33;;
19043;SDS011;9654;52.302;8.120;2024-03-08T09:10:23;45.83;;;23.47;;
19043;SDS011;9654;52.302;8.120;2024-03-08T09:12:50;47.27;;;24.63;;
19043;SDS011;9654;52.302;8.120;2024-03-08T09:15:17;46.53;;;23.57;;
19043;SDS011;9654;52.302;8.120;2024-03-08T09:17:45;49.00;;;23.77;;
19043;SDS011;9654;52.302;8.120;2024-03-08T09:20:14;46.87;;;23.00;;
19043;SDS011;9654;52.302;8.120;2024-03-08T09:22:43;49.37;;;23.83;;
19043;SDS011;9654;52.302;8.120;2024-03-08T09:25:10;44.97;;;22.53;;
19043;SDS011;9654;52.302;8.120;2024-03-08T09:27:37;43.63;;;23.37;;
19043;SDS011;9654;52.302;8.120;2024-03-08T09:30:05;47.13;;;23.70;;
19043;SDS011;9654;52.302;8.120;2024-03-08T09:32:33;41.90;;;22.70;;
19043;SDS011;9654;52.302;8.120;2024-03-08T09:34:59;43.47;;;23.20;;
19043;SDS011;9654;52.302;8.120;2024-03-08T09:37:28;44.13;;;22.90;;
19043;SDS011;9654;52.302;8.120;2024-03-08T09:39:55;45.37;;;22.60;;
19043;SDS011;9654;52.302;8.120;2024-03-08T09:42:24;43.80;;;22.27;;
19043;SDS011;9654;52.302;8.120;2024-03-08T09:44:51;47.13;;;24.50;;
19043;SDS011;9654;52.302;8.120;2024-03-08T09:47:18;47.77;;;23.87;;
19043;SDS011;9654;52.302;8.120;2024-03-08T09:49:54;40.23;;;21.77;;
19043;SDS011;9654;52.302;8.120;2024-03-08T09:52:21;41.37;;;22.47;;
19043;SDS011;9654;52.302;8.120;2024-03-08T09:54:49;45.20;;;22.83;;
19043;SDS011;9654;52.302;8.120;2024-03-08T09:57:16;41.83;;;21.40;;
19043;SDS011;9654;52.302;8.120;2024-03-08T09:59:45;43.07;;;20.90;;
19043;SDS011;9654;52.302;8.120;2024-03-08T10:02:14;40.00;;;21.40;;
19043;SDS011;9654;52.302;8.120;2024-03-08T10:04:42;43.97;;;22.30;;
19043;SDS011;9654;52.302;8.120;2024-03-08T10:07:11;39.90;;;21.33;;
19043;SDS011;9654;52.302;8.120;2024-03-08T10:09:38;41.27;;;21.30;;
19043;SDS011;9654;52.302;8.120;2024-03-08T10:12:08;41.93;;;20.83;;
19043;SDS011;9654;52.302;8.120;2024-03-08T10:14:38;41.23;;;21.73;;
19043;SDS011;9654;52.302;8.120;2024-03-08T10:17:07;40.80;;;20.87;;
19043;SDS011;9654;52.302;8.120;2024-03-08T10:19:34;39.33;;;21.33;;
19043;SDS011;9654;52.302;8.120;2024-03-08T10:22:01;37.67;;;20.80;;
19043;SDS011;9654;52.302;8.120;2024-03-08T10:24:29;42.40;;;20.83;;
19043;SDS011;9654;52.302;8.120;2024-03-08T10:26:58;39.57;;;20.77;;
19043;SDS011;9654;52.302;8.120;2024-03-08T10:29:28;40.07;;;21.07;;
19043;SDS011;9654;52.302;8.120;2024-03-08T10:31:55;37.33;;;22.07;;
19043;SDS011;9654;52.302;8.120;2024-03-08T10:34:22;41.13;;;21.30;;
19043;SDS011;9654;52.302;8.120;2024-03-08T10:36:49;36.67;;;20.47;;
19043;SDS011;9654;52.302;8.120;2024-03-08T10:39:20;32.67;;;19.53;;
19043;SDS011;9654;52.302;8.120;2024-03-08T10:41:51;38.27;;;20.27;;
19043;SDS011;9654;52.302;8.120;2024-03-08T10:44:30;36.20;;;19.33;;
19043;SDS011;9654;52.302;8.120;2024-03-08T10:47:09;37.47;;;19.63;;
19043;SDS011;9654;52.302;8.120;2024-03-08T10:49:46;35.40;;;20.20;;
19043;SDS011;9654;52.302;8.120;2024-03-08T10:52:21;35.50;;;19.27;;
19043;SDS011;9654;52.302;8.120;2024-03-08T10:54:48;38.30;;;19.13;;
19043;SDS011;9654;52.302;8.120;2024-03-08T10:57:17;38.53;;;20.17;;
19043;SDS011;9654;52.302;8.120;2024-03-08T10:59:47;37.40;;;19.00;;
19043;SDS011;9654;52.302;8.120;2024-03-08T11:02:14;36.13;;;19.97;;
19043;SDS011;9654;52.302;8.120;2024-03-08T11:04:47;35.40;;;20.00;;
19043;SDS011;9654;52.302;8.120;2024-03-08T11:07:15;39.77;;;21.90;;
19043;SDS011;9654;52.302;8.120;2024-03-08T11:09:47;40.43;;;21.37;;
19043;SDS011;9654;52.302;8.120;2024-03-08T11:12:21;41.17;;;22.60;;
19043;SDS011;9654;52.302;8.120;2024-03-08T11:14:53;36.67;;;21.13;;
19043;SDS011;9654;52.302;8.120;2024-03-08T11:17:22;37.17;;;20.60;;
19043;SDS011;9654;52.302;8.120;2024-03-08T11:19:52;44.63;;;20.57;;
19043;SDS011;9654;52.302;8.120;2024-03-08T11:22:22;37.57;;;20.27;;
19043;SDS011;9654;52.302;8.120;2024-03-08T11:24:52;35.27;;;20.03;;
19043;SDS011;9654;52.302;8.120;2024-03-08T11:27:19;36.97;;;21.47;;
19043;SDS011;9654;52.302;8.120;2024-03-08T11:30:00;38.03;;;20.27;;
19043;SDS011;9654;52.302;8.120;2024-03-08T11:32:35;40.10;;;20.63;;
19043;SDS011;9654;52.302;8.120;2024-03-08T11:35:05;34.63;;;19.53;;
19043;SDS011;9654;52.302;8.120;2024-03-08T11:37:34;37.57;;;20.63;;
19043;SDS011;9654;52.302;8.120;2024-03-08T11:40:01;38.20;;;21.43;;
19043;SDS011;9654;52.302;8.120;2024-03-08T11:42:39;40.07;;;19.10;;
19043;SDS011;9654;52.302;8.120;2024-03-08T11:45:09;40.57;;;20.77;;
19043;SDS011;9654;52.302;8.120;2024-03-08T11:47:36;35.43;;;20.60;;
19043;SDS011;9654;52.302;8.120;2024-03-08T11:50:05;39.10;;;20.10;;
19043;SDS011;9654;52.302;8.120;2024-03-08T11:52:36;38.37;;;20.67;;
19043;SDS011;9654;52.302;8.120;2024-03-08T11:55:03;38.17;;;20.67;;
19043;SDS011;9654;52.302;8.120;2024-03-08T11:57:31;39.87;;;20.73;;
19043;SDS011;9654;52.302;8.120;2024-03-08T11:59:59;40.53;;;20.83;;
19043;SDS011;9654;52.302;8.120;2024-03-08T12:02:33;37.00;;;19.87;;
19043;SDS011;9654;52.302;8.120;2024-03-08T12:05:03;34.97;;;19.00;;
19043;SDS011;9654;52.302;8.120;2024-03-08T12:07:34;37.73;;;19.43;;
19043;SDS011;9654;52.302;8.120;2024-03-08T12:10:14;39.03;;;20.40;;
19043;SDS011;9654;52.302;8.120;2024-03-08T12:12:43;34.53;;;19.30;;
19043;SDS011;9654;52.302;8.120;2024-03-08T12:15:11;34.87;;;20.77;;
19043;SDS011;9654;52.302;8.120;2024-03-08T12:17:41;36.53;;;19.60;;
19043;SDS011;9654;52.302;8.120;2024-03-08T12:20:12;33.60;;;19.63;;
19043;SDS011;9654;52.302;8.120;2024-03-08T12:22:42;37.17;;;19.83;;
19043;SDS011;9654;52.302;8.120;2024-03-08T12:25:09;32.33;;;18.87;;
19043;SDS011;9654;52.302;8.120;2024-03-08T12:27:38;31.73;;;17.60;;
19043;SDS011;9654;52.302;8.120;2024-03-08T12:30:15;29.80;;;17.17;;
19043;SDS011;9654;52.302;8.120;2024-03-08T12:32:47;25.87;;;15.23;;
19043;SDS011;9654;52.302;8.120;2024-03-08T12:35:21;28.03;;;16.13;;
19043;SDS011;9654;52.302;8.120;2024-03-08T12:37:50;26.27;;;15.50;;
19043;SDS011;9654;52.302;8.120;2024-03-08T12:40:18;30.03;;;16.20;;
19043;SDS011;9654;52.302;8.120;2024-03-08T12:42:46;26.73;;;16.03;;
19043;SDS011;9654;52.302;8.120;2024-03-08T12:45:13;26.33;;;15.27;;
19043;SDS011;9654;52.302;8.120;2024-03-08T12:47:40;32.83;;;16.87;;
19043;SDS011;9654;52.302;8.120;2024-03-08T12:50:10;28.03;;;16.63;;
19043;SDS011;9654;52.302;8.120;2024-03-08T12:52:38;29.10;;;17.50;;
19043;SDS011;9654;52.302;8.120;2024-03-08T12:55:05;28.60;;;16.23;;
19043;SDS011;9654;52.302;8.120;2024-03-08T12:57:34;24.93;;;15.90;;
19043;SDS011;9654;52.302;8.120;2024-03-08T13:00:02;25.13;;;15.47;;
19043;SDS011;9654;52.302;8.120;2024-03-08T13:02:37;33.93;;;18.83;;
19043;SDS011;9654;52.302;8.120;2024-03-08T13:05:04;32.50;;;19.30;;
19043;SDS011;9654;52.302;8.120;2024-03-08T13:07:36;33.30;;;19.33;;
19043;SDS011;9654;52.302;8.120;2024-03-08T13:10:03;35.50;;;19.63;;
19043;SDS011;9654;52.302;8.120;2024-03-08T13:12:32;31.03;;;18.07;;
19043;SDS011;9654;52.302;8.120;2024-03-08T13:15:03;33.70;;;20.13;;
19043;SDS011;9654;52.302;8.120;2024-03-08T13:17:31;38.30;;;20.27;;
19043;SDS011;9654;52.302;8.120;2024-03-08T13:20:02;35.70;;;20.20;;
19043;SDS011;9654;52.302;8.120;2024-03-08T13:22:30;38.60;;;19.97;;
19043;SDS011;9654;52.302;8.120;2024-03-08T13:24:58;31.73;;;18.80;;
19043;SDS011;9654;52.302;8.120;2024-03-08T13:27:26;35.00;;;19.80;;
19043;SDS011;9654;52.302;8.120;2024-03-08T13:29:53;32.80;;;18.97;;
19043;SDS011;9654;52.302;8.120;2024-03-08T13:32:20;34.97;;;19.53;;
19043;SDS011;9654;52.302;8.120;2024-03-08T13:34:47;32.50;;;19.20;;
19043;SDS011;9654;52.302;8.120;2024-03-08T13:37:16;37.43;;;20.07;;
19043;SDS011;9654;52.302;8.120;2024-03-08T13:39:44;37.37;;;19.90;;
19043;SDS011;9654;52.302;8.120;2024-03-08T13:42:13;37.23;;;19.40;;
19043;SDS011;9654;52.302;8.120;2024-03-08T13:44:44;36.40;;;19.93;;
19043;SDS011;9654;52.302;8.120;2024-03-08T13:47:12;35.57;;;20.60;;
19043;SDS011;9654;52.302;8.120;2024-03-08T13:49:39;36.80;;;18.80;;
19043;SDS011;9654;52.302;8.120;2024-03-08T13:52:07;37.90;;;20.63;;
19043;SDS011;9654;52.302;8.120;2024-03-08T13:54:34;33.33;;;19.53;;
19043;SDS011;9654;52.302;8.120;2024-03-08T13:57:01;33.13;;;19.73;;
19043;SDS011;9654;52.302;8.120;2024-03-08T13:59:33;30.00;;;17.97;;
19043;SDS011;9654;52.302;8.120;2024-03-08T14:02:00;34.50;;;19.33;;
19043;SDS011;9654;52.302;8.120;2024-03-08T14:04:27;29.63;;;18.20;;
19043;SDS011;9654;52.302;8.120;2024-03-08T14:06:56;35.30;;;19.10;;
19043;SDS011;9654;52.302;8.120;2024-03-08T14:09:28;32.43;;;18.97;;
19043;SDS011;9654;52.302;8.120;2024-03-08T14:11:56;35.03;;;18.57;;
19043;SDS011;9654;52.302;8.120;2024-03-08T14:14:24;32.90;;;18.83;;
19043;SDS011;9654;52.302;8.120;2024-03-08T14:16:52;34.07;;;19.57;;
19043;SDS011;9654;52.302;8.120;2024-03-08T14:19:23;38.37;;;18.70;;
19043;SDS011;9654;52.302;8.120;2024-03-08T14:21:51;31.63;;;18.00;;
19043;SDS011;9654;52.302;8.120;2024-03-08T14:24:18;34.67;;;18.90;;
19043;SDS011;9654;52.302;8.120;2024-03-08T14:26:45;31.67;;;18.40;;
19043;SDS011;9654;52.302;8.120;2024-03-08T14:29:13;28.50;;;16.23;;
19043;SDS011;9654;52.302;8.120;2024-03-08T14:31:40;32.00;;;18.27;;
19043;SDS011;9654;52.302;8.120;2024-03-08T14:34:09;30.03;;;17.90;;
19043;SDS011;9654;52.302;8.120;2024-03-08T14:36:39;32.00;;;16.50;;
19043;SDS011;9654;52.302;8.120;2024-03-08T14:39:06;31.43;;;17.43;;
19043;SDS011;9654;52.302;8.120;2024-03-08T14:41:34;27.63;;;16.03;;
19043;SDS011;9654;52.302;8.120;2024-03-08T14:44:01;27.27;;;16.20;;